sensor_id;sensor_type;location;lat;lon;timestamp;pressure;altitude;pressure_sealevel;temperature;humidity
75788;BME280;64406;50.024;14.492;2023-11-19T00:02:22;98239.47;;;0.76;99.67
75788;BME280;64406;50.024;14.492;2023-11-19T00:04:47;98225.19;;;0.77;99.96
75788;BME280;64406;50.024;14.492;2023-11-19T00:07:13;98216.97;;;0.85;99.69
75788;BME280;64406;50.024;14.492;2023-11-19T00:09:40;98205.34;;;0.86;99.59
75788;BME280;64406;50.024;14.492;2023-11-19T00:12:06;98197.06;;;1.01;99.38
75788;BME280;64406;50.024;14.492;2023-11-19T00:14:35;98179.94;;;0.97;98.80
75788;BME280;64406;50.024;14.492;2023-11-19T00:17:01;98182.34;;;0.80;99.11
75788;BME280;64406;50.024;14.492;2023-11-19T00:19:26;98175.63;;;0.77;99.54
75788;BME280;64406;50.024;14.492;2023-11-19T00:21:52;98164.44;;;0.75;99.96
75788;BME280;64406;50.024;14.492;2023-11-19T00:24:18;98168.06;;;0.81;100.00
75788;BME280;64406;50.024;14.492;2023-11-19T00:26:44;98168.06;;;0.81;100.00
75788;BME280;64406;50.024;14.492;2023-11-19T00:29:09;98156.59;;;0.87;100.00
75788;BME280;64406;50.024;14.492;2023-11-19T00:31:36;98155.56;;;0.88;100.00
75788;BME280;64406;50.024;14.492;2023-11-19T00:34:02;98146.19;;;0.86;100.00
75788;BME280;64406;50.024;14.492;2023-11-19T00:36:28;98137.84;;;1.07;100.00
75788;BME280;64406;50.024;14.492;2023-11-19T00:38:54;98139.75;;;1.00;100.00
75788;BME280;64406;50.024;14.492;2023-11-19T00:41:20;98130.69;;;1.07;100.00
75788;BME280;64406;50.024;14.492;2023-11-19T00:43:46;98119.03;;;1.08;100.00
75788;BME280;64406;50.024;14.492;2023-11-19T00:46:12;98130.53;;;1.02;100.00
75788;BME280;64406;50.024;14.492;2023-11-19T00:48:39;98126.63;;;1.05;100.00
75788;BME280;64406;50.024;14.492;2023-11-19T00:51:05;98116.38;;;1.08;100.00
75788;BME280;64406;50.024;14.492;2023-11-19T00:53:30;98094.53;;;1.13;100.00
75788;BME280;64406;50.024;14.492;2023-11-19T00:55:57;98090.75;;;1.21;99.94
75788;BME280;64406;50.024;14.492;2023-11-19T00:58:23;98095.09;;;1.15;100.00
75788;BME280;64406;50.024;14.492;2023-11-19T01:00:49;98092.88;;;1.12;100.00
75788;BME280;64406;50.024;14.492;2023-11-19T01:03:14;98088.25;;;1.26;100.00
75788;BME280;64406;50.024;14.492;2023-11-19T01:05:44;98095.75;;;1.29;99.91
75788;BME280;64406;50.024;14.492;2023-11-19T01:08:12;98095.38;;;1.25;99.67
75788;BME280;64406;50.024;14.492;2023-11-19T01:10:38;98090.44;;;1.29;99.82
75788;BME280;64406;50.024;14.492;2023-11-19T01:13:03;98092.53;;;1.27;99.73
75788;BME280;64406;50.024;14.492;2023-11-19T01:15:32;98091.50;;;1.28;99.81
75788;BME280;64406;50.024;14.492;2023-11-19T01:17:57;98076.72;;;1.32;100.00
75788;BME280;64406;50.024;14.492;2023-11-19T01:20:23;98075.97;;;1.43;99.99
75788;BME280;64406;50.024;14.492;2023-11-19T01:22:49;98056.91;;;1.34;99.94
75788;BME280;64406;50.024;14.492;2023-11-19T01:25:15;98065.44;;;1.36;100.00
75788;BME280;64406;50.024;14.492;2023-11-19T01:27:40;98050.09;;;1.39;99.77
75788;BME280;64406;50.024;14.492;2023-11-19T01:30:07;98055.06;;;1.35;100.00
75788;BME280;64406;50.024;14.492;2023-11-19T01:32:38;98042.91;;;1.27;100.00
75788;BME280;64406;50.024;14.492;2023-11-19T01:35:04;98046.16;;;1.29;100.00
75788;BME280;64406;50.024;14.492;2023-11-19T01:37:30;98040.63;;;1.31;100.00
75788;BME280;64406;50.024;14.492;2023-11-19T01:39:57;98017.53;;;1.31;100.00
75788;BME280;64406;50.024;14.492;2023-11-19T01:42:23;98017.91;;;1.35;100.00
75788;BME280;64406;50.024;14.492;2023-11-19T01:45:00;98017.91;;;1.35;100.00
75788;BME280;64406;50.024;14.492;2023-11-19T01:47:30;98004.66;;;1.35;100.00
75788;BME280;64406;50.024;14.492;2023-11-19T01:49:56;98000.44;;;1.46;100.00
75788;BME280;64406;50.024;14.492;2023-11-19T01:52:22;97987.59;;;1.43;100.00
75788;BME280;64406;50.024;14.492;2023-11-19T01:54:49;97992.19;;;1.35;100.00
75788;BME280;64406;50.024;14.492;2023-11-19T01:57:15;97980.19;;;1.33;100.00
75788;BME280;64406;50.024;14.492;2023-11-19T01:59:42;97976.72;;;1.32;100.00
75788;BME280;64406;50.024;14.492;2023-11-19T02:02:08;97984.59;;;1.39;100.00
75788;BME280;64406;50.024;14.492;2023-11-19T02:04:33;97982.97;;;1.38;100.00
75788;BME280;64406;50.024;14.492;2023-11-19T02:07:00;97990.03;;;1.44;100.00
75788;BME280;64406;50.024;14.492;2023-11-19T02:09:25;97989.59;;;1.47;100.00
75788;BME280;64406;50.024;14.492;2023-11-19T02:11:53;97986.69;;;1.49;100.00
75788;BME280;64406;50.024;14.492;2023-11-19T02:14:23;97977.22;;;1.41;100.00
75788;BME280;64406;50.024;14.492;2023-11-19T02:16:51;97972.84;;;1.47;100.00
75788;BME280;64406;50.024;14.492;2023-11-19T02:19:19;97963.03;;;1.47;100.00
75788;BME280;64406;50.024;14.492;2023-11-19T02:21:45;97939.06;;;1.54;100.00
75788;BME280;64406;50.024;14.492;2023-11-19T02:24:12;97932.81;;;1.48;100.00
75788;BME280;64406;50.024;14.492;2023-11-19T02:26:47;97921.81;;;1.45;100.00
75788;BME280;64406;50.024;14.492;2023-11-19T02:29:15;97917.31;;;1.45;100.00
75788;BME280;64406;50.024;14.492;2023-11-19T02:31:41;97921.38;;;1.48;100.00
75788;BME280;64406;50.024;14.492;2023-11-19T02:34:07;97915.28;;;1.47;100.00
75788;BME280;64406;50.024;14.492;2023-11-19T02:36:32;97915.28;;;1.47;100.00
75788;BME280;64406;50.024;14.492;2023-11-19T02:38:58;97919.63;;;1.42;100.00
75788;BME280;64406;50.024;14.492;2023-11-19T02:41:23;97915.94;;;1.43;100.00
75788;BME280;64406;50.024;14.492;2023-11-19T02:43:49;97917.22;;;1.40;100.00
75788;BME280;64406;50.024;14.492;2023-11-19T02:46:15;97913.97;;;1.38;100.00
75788;BME280;64406;50.024;14.492;2023-11-19T02:48:43;97913.28;;;1.43;100.00
75788;BME280;64406;50.024;14.492;2023-11-19T02:51:09;97915.72;;;1.44;100.00
75788;BME280;64406;50.024;14.492;2023-11-19T02:53:36;97909.25;;;1.40;100.00
75788;BME280;64406;50.024;14.492;2023-11-19T02:56:03;97909.59;;;1.44;100.00
75788;BME280;64406;50.024;14.492;2023-11-19T02:58:37;97906.38;;;1.42;100.00
75788;BME280;64406;50.024;14.492;2023-11-19T03:01:04;97887.56;;;1.43;100.00
75788;BME280;64406;50.024;14.492;2023-11-19T03:03:48;97874.66;;;1.47;100.00
75788;BME280;64406;50.024;14.492;2023-11-19T03:06:19;97878.13;;;1.47;100.00
75788;BME280;64406;50.024;14.492;2023-11-19T03:08:45;97882.16;;;1.50;100.00
75788;BME280;64406;50.024;14.492;2023-11-19T03:11:10;97885.16;;;1.53;100.00
75788;BME280;64406;50.024;14.492;2023-11-19T03:13:36;97867.84;;;1.51;100.00
75788;BME280;64406;50.024;14.492;2023-11-19T03:16:02;97858.03;;;1.51;100.00
75788;BME280;64406;50.024;14.492;2023-11-19T03:18:28;97841.28;;;1.51;100.00
75788;BME280;64406;50.024;14.492;2023-11-19T03:20:53;97836.47;;;1.48;100.00
75788;BME280;64406;50.024;14.492;2023-11-19T03:23:19;97834.63;;;1.48;100.00
75788;BME280;64406;50.024;14.492;2023-11-19T03:25:45;97828.16;;;1.56;100.00
75788;BME280;64406;50.024;14.492;2023-11-19T03:28:10;97823.06;;;1.54;100.00
75788;BME280;64406;50.024;14.492;2023-11-19T03:30:36;97829.31;;;1.60;100.00
75788;BME280;64406;50.024;14.492;2023-11-19T03:33:02;97825.50;;;1.56;100.00
75788;BME280;64406;50.024;14.492;2023-11-19T03:35:28;97819.38;;;1.55;100.00
75788;BME280;64406;50.024;14.492;2023-11-19T03:37:54;97812.09;;;1.51;100.00
75788;BME280;64406;50.024;14.492;2023-11-19T03:40:19;97812.69;;;1.53;100.00
75788;BME280;64406;50.024;14.492;2023-11-19T03:42:46;97800.09;;;1.48;100.00
75788;BME280;64406;50.024;14.492;2023-11-19T03:45:12;97800.22;;;1.53;100.00
75788;BME280;64406;50.024;14.492;2023-11-19T03:47:37;97786.03;;;1.48;100.00
75788;BME280;64406;50.024;14.492;2023-11-19T03:50:04;97790.88;;;1.51;100.00
75788;BME280;64406;50.024;14.492;2023-11-19T03:52:30;97790.31;;;1.49;100.00
75788;BME280;64406;50.024;14.492;2023-11-19T03:54:56;97792.38;;;1.47;100.00
75788;BME280;64406;50.024;14.492;2023-11-19T03:57:22;97789.94;;;1.57;100.00
75788;BME280;64406;50.024;14.492;2023-11-19T03:59:48;97790.88;;;1.62;100.00
75788;BME280;64406;50.024;14.492;2023-11-19T04:02:15;97786.38;;;1.63;100.00
75788;BME280;64406;50.024;14.492;2023-11-19T04:04:41;97780.13;;;1.57;100.00
75788;BME280;64406;50.024;14.492;2023-11-19T04:07:06;97783.94;;;1.61;100.00
75788;BME280;64406;50.024;14.492;2023-11-19T04:09:32;97777.59;;;1.62;100.00
75788;BME280;64406;50.024;14.492;2023-11-19T04:11:58;97779.69;;;1.60;100.00
75788;BME280;64406;50.024;14.492;2023-11-19T04:14:24;97768.03;;;1.61;100.00
75788;BME280;64406;50.024;14.492;2023-11-19T04:16:50;97768.25;;;1.60;100.00
75788;BME280;64406;50.024;14.492;2023-11-19T04:19:17;97751.97;;;1.56;100.00
75788;BME280;64406;50.024;14.492;2023-11-19T04:21:43;97753.94;;;1.61;100.00
75788;BME280;64406;50.024;14.492;2023-11-19T04:24:09;97748.88;;;1.59;100.00
75788;BME280;64406;50.024;14.492;2023-11-19T04:26:44;97740.69;;;1.61;100.00
75788;BME280;64406;50.024;14.492;2023-11-19T04:29:15;97740.69;;;1.61;100.00
75788;BME280;64406;50.024;14.492;2023-11-19T04:31:43;97723.69;;;1.62;100.00
75788;BME280;64406;50.024;14.492;2023-11-19T04:34:10;97721.84;;;1.62;100.00
75788;BME280;64406;50.024;14.492;2023-11-19T04:36:36;97709.16;;;1.64;100.00
75788;BME280;64406;50.024;14.492;2023-11-19T04:39:03;97723.69;;;1.62;100.00
75788;BME280;64406;50.024;14.492;2023-11-19T04:41:51;97714.47;;;1.64;100.00
75788;BME280;64406;50.024;14.492;2023-11-19T04:44:20;97706.41;;;1.59;100.00
75788;BME280;64406;50.024;14.492;2023-11-19T04:46:46;97699.81;;;1.62;100.00
75788;BME280;64406;50.024;14.492;2023-11-19T04:49:12;97706.03;;;1.68;100.00
75788;BME280;64406;50.024;14.492;2023-11-19T04:51:42;97696.13;;;1.63;100.00
75788;BME280;64406;50.024;14.492;2023-11-19T04:54:09;97690.94;;;1.56;100.00
75788;BME280;64406;50.024;14.492;2023-11-19T04:56:35;97676.63;;;1.57;100.00
75788;BME280;64406;50.024;14.492;2023-11-19T04:59:02;97669.56;;;1.63;100.00
75788;BME280;64406;50.024;14.492;2023-11-19T05:01:28;97648.91;;;1.65;100.00
75788;BME280;64406;50.024;14.492;2023-11-19T05:03:54;97643.50;;;1.60;100.00
75788;BME280;64406;50.024;14.492;2023-11-19T05:06:19;97649.47;;;1.67;100.00
75788;BME280;64406;50.024;14.492;2023-11-19T05:08:45;97643.81;;;1.63;100.00
75788;BME280;64406;50.024;14.492;2023-11-19T05:11:11;97630.41;;;1.70;100.00
75788;BME280;64406;50.024;14.492;2023-11-19T05:13:39;97632.97;;;1.65;100.00
75788;BME280;64406;50.024;14.492;2023-11-19T05:16:05;97634.69;;;1.71;100.00
75788;BME280;64406;50.024;14.492;2023-11-19T05:18:30;97629.63;;;1.70;100.00
75788;BME280;64406;50.024;14.492;2023-11-19T05:20:56;97629.38;;;1.71;100.00
75788;BME280;64406;50.024;14.492;2023-11-19T05:23:22;97621.75;;;1.75;100.00
75788;BME280;64406;50.024;14.492;2023-11-19T05:25:47;97625.91;;;1.71;100.00
75788;BME280;64406;50.024;14.492;2023-11-19T05:28:13;97636.78;;;1.69;100.00
75788;BME280;64406;50.024;14.492;2023-11-19T05:30:39;97614.25;;;1.72;100.00
75788;BME280;64406;50.024;14.492;2023-11-19T05:33:06;97616.69;;;1.73;100.00
75788;BME280;64406;50.024;14.492;2023-11-19T05:35:34;97600.50;;;1.75;100.00
75788;BME280;64406;50.024;14.492;2023-11-19T05:38:00;97582.53;;;1.65;100.00
75788;BME280;64406;50.024;14.492;2023-11-19T05:40:28;97598.66;;;1.75;100.00
75788;BME280;64406;50.024;14.492;2023-11-19T05:42:53;97591.75;;;1.74;100.00
75788;BME280;64406;50.024;14.492;2023-11-19T05:45:19;97592.91;;;1.78;100.00
75788;BME280;64406;50.024;14.492;2023-11-19T05:47:45;97595.06;;;1.81;100.00
75788;BME280;64406;50.024;14.492;2023-11-19T05:50:10;97584.94;;;1.78;100.00
75788;BME280;64406;50.024;14.492;2023-11-19T05:52:36;97584.44;;;1.81;100.00
75788;BME280;64406;50.024;14.492;2023-11-19T05:55:02;97589.25;;;1.84;100.00
75788;BME280;64406;50.024;14.492;2023-11-19T05:57:30;97590.31;;;1.83;100.00
75788;BME280;64406;50.024;14.492;2023-11-19T05:59:56;97588.44;;;1.84;100.00
75788;BME280;64406;50.024;14.492;2023-11-19T06:02:21;97592.16;;;1.83;100.00
75788;BME280;64406;50.024;14.492;2023-11-19T06:04:47;97580.97;;;1.81;100.00
75788;BME280;64406;50.024;14.492;2023-11-19T06:07:13;97569.66;;;1.85;100.00
75788;BME280;64406;50.024;14.492;2023-11-19T06:09:40;97566.25;;;1.90;100.00
75788;BME280;64406;50.024;14.492;2023-11-19T06:12:06;97562.69;;;1.84;100.00
75788;BME280;64406;50.024;14.492;2023-11-19T06:14:32;97560.63;;;1.86;100.00
75788;BME280;64406;50.024;14.492;2023-11-19T06:16:58;97561.19;;;1.88;100.00
75788;BME280;64406;50.024;14.492;2023-11-19T06:19:24;97555.09;;;1.88;100.00
75788;BME280;64406;50.024;14.492;2023-11-19T06:21:52;97560.94;;;1.90;100.00
75788;BME280;64406;50.024;14.492;2023-11-19T06:24:18;97578.84;;;1.95;100.00
75788;BME280;64406;50.024;14.492;2023-11-19T06:26:43;97572.97;;;1.93;100.00
75788;BME280;64406;50.024;14.492;2023-11-19T06:29:09;97556.78;;;1.94;100.00
75788;BME280;64406;50.024;14.492;2023-11-19T06:31:34;97556.22;;;1.92;100.00
75788;BME280;64406;50.024;14.492;2023-11-19T06:34:00;97550.09;;;1.92;100.00
75788;BME280;64406;50.024;14.492;2023-11-19T06:36:26;97541.09;;;1.93;100.00
75788;BME280;64406;50.024;14.492;2023-11-19T06:38:52;97546.41;;;1.93;100.00
75788;BME280;64406;50.024;14.492;2023-11-19T06:41:18;97557.34;;;1.96;100.00
75788;BME280;64406;50.024;14.492;2023-11-19T06:43:43;97560.00;;;1.96;100.00
75788;BME280;64406;50.024;14.492;2023-11-19T06:46:16;97557.69;;;2.00;100.00
75788;BME280;64406;50.024;14.492;2023-11-19T06:48:42;97544.66;;;1.98;100.00
75788;BME280;64406;50.024;14.492;2023-11-19T06:51:10;97555.72;;;1.95;100.00
75788;BME280;64406;50.024;14.492;2023-11-19T06:53:35;97554.13;;;1.94;100.00
75788;BME280;64406;50.024;14.492;2023-11-19T06:56:02;97546.47;;;1.98;100.00
75788;BME280;64406;50.024;14.492;2023-11-19T06:58:37;97552.28;;;1.95;100.00
75788;BME280;64406;50.024;14.492;2023-11-19T07:01:06;97544.66;;;1.98;100.00
75788;BME280;64406;50.024;14.492;2023-11-19T07:03:34;97554.78;;;2.01;100.00
75788;BME280;64406;50.024;14.492;2023-11-19T07:06:00;97545.44;;;1.99;100.00
75788;BME280;64406;50.024;14.492;2023-11-19T07:08:26;97542.22;;;1.97;100.00
75788;BME280;64406;50.024;14.492;2023-11-19T07:10:52;97543.00;;;1.97;100.00
75788;BME280;64406;50.024;14.492;2023-11-19T07:13:18;97546.00;;;2.01;100.00
75788;BME280;64406;50.024;14.492;2023-11-19T07:15:44;97546.00;;;2.01;100.00
75788;BME280;64406;50.024;14.492;2023-11-19T07:18:10;97534.09;;;2.03;100.00
75788;BME280;64406;50.024;14.492;2023-11-19T07:20:37;97543.66;;;2.04;100.00
75788;BME280;64406;50.024;14.492;2023-11-19T07:23:03;97547.47;;;2.08;100.00
75788;BME280;64406;50.024;14.492;2023-11-19T07:25:29;97552.84;;;2.13;100.00
75788;BME280;64406;50.024;14.492;2023-11-19T07:27:55;97549.50;;;2.18;100.00
75788;BME280;64406;50.024;14.492;2023-11-19T07:30:22;97526.69;;;2.22;100.00
75788;BME280;64406;50.024;14.492;2023-11-19T07:32:47;97538.88;;;2.18;100.00
75788;BME280;64406;50.024;14.492;2023-11-19T07:35:14;97542.22;;;2.13;100.00
75788;BME280;64406;50.024;14.492;2023-11-19T07:37:41;97541.56;;;2.23;100.00
75788;BME280;64406;50.024;14.492;2023-11-19T07:40:08;97530.41;;;2.21;100.00
75788;BME280;64406;50.024;14.492;2023-11-19T07:42:33;97519.06;;;2.26;100.00
75788;BME280;64406;50.024;14.492;2023-11-19T07:44:59;97523.31;;;2.27;100.00
75788;BME280;64406;50.024;14.492;2023-11-19T07:47:25;97529.56;;;2.37;100.00
75788;BME280;64406;50.024;14.492;2023-11-19T07:49:51;97540.19;;;2.37;100.00
75788;BME280;64406;50.024;14.492;2023-11-19T07:52:16;97533.06;;;2.38;100.00
75788;BME280;64406;50.024;14.492;2023-11-19T07:54:42;97533.53;;;2.35;100.00
75788;BME280;64406;50.024;14.492;2023-11-19T07:57:07;97547.38;;;2.37;100.00
75788;BME280;64406;50.024;14.492;2023-11-19T07:59:33;97545.84;;;2.41;100.00
75788;BME280;64406;50.024;14.492;2023-11-19T08:01:59;97549.63;;;2.45;100.00
75788;BME280;64406;50.024;14.492;2023-11-19T08:04:24;97537.94;;;2.46;100.00
75788;BME280;64406;50.024;14.492;2023-11-19T08:06:50;97527.72;;;2.55;100.00
75788;BME280;64406;50.024;14.492;2023-11-19T08:09:16;97525.84;;;2.55;100.00
75788;BME280;64406;50.024;14.492;2023-11-19T08:11:42;97530.19;;;2.61;100.00
75788;BME280;64406;50.024;14.492;2023-11-19T08:14:09;97513.63;;;2.76;100.00
75788;BME280;64406;50.024;14.492;2023-11-19T08:16:35;97509.28;;;2.70;100.00
75788;BME280;64406;50.024;14.492;2023-11-19T08:19:01;97505.09;;;2.74;100.00
75788;BME280;64406;50.024;14.492;2023-11-19T08:21:28;97504.94;;;2.81;100.00
75788;BME280;64406;50.024;14.492;2023-11-19T08:23:54;97515.06;;;2.84;100.00
75788;BME280;64406;50.024;14.492;2023-11-19T08:26:19;97504.06;;;2.97;100.00
75788;BME280;64406;50.024;14.492;2023-11-19T08:28:45;97510.94;;;2.93;100.00
75788;BME280;64406;50.024;14.492;2023-11-19T08:31:10;97512.72;;;3.09;100.00
75788;BME280;64406;50.024;14.492;2023-11-19T08:33:36;97497.19;;;3.23;100.00
75788;BME280;64406;50.024;14.492;2023-11-19T08:36:02;97482.66;;;3.09;100.00
75788;BME280;64406;50.024;14.492;2023-11-19T08:38:29;97480.84;;;3.14;100.00
75788;BME280;64406;50.024;14.492;2023-11-19T08:40:55;97489.16;;;3.18;100.00
75788;BME280;64406;50.024;14.492;2023-11-19T08:43:26;97485.06;;;3.10;100.00
75788;BME280;64406;50.024;14.492;2023-11-19T08:45:51;97492.13;;;3.21;100.00
75788;BME280;64406;50.024;14.492;2023-11-19T08:48:17;97489.50;;;3.26;100.00
75788;BME280;64406;50.024;14.492;2023-11-19T08:50:42;97492.97;;;3.27;100.00
75788;BME280;64406;50.024;14.492;2023-11-19T08:53:08;97495.19;;;3.35;100.00
75788;BME280;64406;50.024;14.492;2023-11-19T08:55:34;97488.25;;;3.34;100.00
75788;BME280;64406;50.024;14.492;2023-11-19T08:58:00;97476.66;;;3.45;100.00
75788;BME280;64406;50.024;14.492;2023-11-19T09:00:25;97490.59;;;3.52;100.00
75788;BME280;64406;50.024;14.492;2023-11-19T09:02:51;97496.47;;;3.54;100.00
75788;BME280;64406;50.024;14.492;2023-11-19T09:05:16;97498.63;;;3.58;100.00
75788;BME280;64406;50.024;14.492;2023-11-19T09:07:42;97501.38;;;3.68;100.00
75788;BME280;64406;50.024;14.492;2023-11-19T09:10:08;97494.31;;;3.78;100.00
75788;BME280;64406;50.024;14.492;2023-11-19T09:12:34;97496.16;;;3.78;100.00
75788;BME280;64406;50.024;14.492;2023-11-19T09:15:00;97502.03;;;3.80;100.00
75788;BME280;64406;50.024;14.492;2023-11-19T09:17:26;97501.13;;;3.96;100.00
75788;BME280;64406;50.024;14.492;2023-11-19T09:19:52;97495.84;;;4.06;100.00
75788;BME280;64406;50.024;14.492;2023-11-19T09:22:17;97500.81;;;4.25;100.00
75788;BME280;64406;50.024;14.492;2023-11-19T09:24:43;97491.22;;;4.29;100.00
75788;BME280;64406;50.024;14.492;2023-11-19T09:27:10;97493.94;;;4.34;100.00
75788;BME280;64406;50.024;14.492;2023-11-19T09:29:36;97505.75;;;4.48;100.00
75788;BME280;64406;50.024;14.492;2023-11-19T09:32:01;97504.50;;;4.56;100.00
75788;BME280;64406;50.024;14.492;2023-11-19T09:34:27;97477.84;;;4.66;100.00
75788;BME280;64406;50.024;14.492;2023-11-19T09:36:53;97477.88;;;4.71;100.00
75788;BME280;64406;50.024;14.492;2023-11-19T09:39:19;97486.69;;;4.72;100.00
75788;BME280;64406;50.024;14.492;2023-11-19T09:41:46;97499.28;;;4.81;100.00
75788;BME280;64406;50.024;14.492;2023-11-19T09:44:12;97511.81;;;4.81;100.00
75788;BME280;64406;50.024;14.492;2023-11-19T09:46:41;97506.53;;;4.91;100.00
75788;BME280;64406;50.024;14.492;2023-11-19T09:49:08;97505.22;;;4.94;100.00
75788;BME280;64406;50.024;14.492;2023-11-19T09:51:36;97498.56;;;4.96;100.00
75788;BME280;64406;50.024;14.492;2023-11-19T09:54:02;97493.31;;;5.27;100.00
75788;BME280;64406;50.024;14.492;2023-11-19T09:56:29;97504.59;;;5.39;100.00
75788;BME280;64406;50.024;14.492;2023-11-19T09:58:59;97491.53;;;5.42;99.65
75788;BME280;64406;50.024;14.492;2023-11-19T10:01:25;97480.53;;;5.34;99.92
75788;BME280;64406;50.024;14.492;2023-11-19T10:03:52;97489.06;;;5.31;100.00
75788;BME280;64406;50.024;14.492;2023-11-19T10:06:20;97481.91;;;5.52;100.00
75788;BME280;64406;50.024;14.492;2023-11-19T10:08:46;97481.41;;;5.55;100.00
75788;BME280;64406;50.024;14.492;2023-11-19T10:11:11;97484.34;;;5.63;100.00
75788;BME280;64406;50.024;14.492;2023-11-19T10:13:38;97474.22;;;5.76;100.00
75788;BME280;64406;50.024;14.492;2023-11-19T10:16:08;97470.19;;;5.58;100.00
75788;BME280;64406;50.024;14.492;2023-11-19T10:18:34;97468.53;;;5.46;100.00
75788;BME280;64406;50.024;14.492;2023-11-19T10:21:04;97460.81;;;5.60;100.00
75788;BME280;64406;50.024;14.492;2023-11-19T10:23:44;97464.84;;;5.63;100.00
75788;BME280;64406;50.024;14.492;2023-11-19T10:26:12;97449.63;;;5.79;100.00
75788;BME280;64406;50.024;14.492;2023-11-19T10:28:41;97442.16;;;6.11;100.00
75788;BME280;64406;50.024;14.492;2023-11-19T10:31:09;97439.69;;;6.45;100.00
75788;BME280;64406;50.024;14.492;2023-11-19T10:33:35;97451.66;;;6.78;100.00
75788;BME280;64406;50.024;14.492;2023-11-19T10:36:01;97443.97;;;7.26;100.00
75788;BME280;64406;50.024;14.492;2023-11-19T10:38:26;97446.47;;;7.52;100.00
75788;BME280;64406;50.024;14.492;2023-11-19T10:40:53;97440.16;;;7.72;98.42
75788;BME280;64406;50.024;14.492;2023-11-19T10:43:20;97433.69;;;7.78;98.63
75788;BME280;64406;50.024;14.492;2023-11-19T10:45:50;97410.72;;;8.01;98.61
75788;BME280;64406;50.024;14.492;2023-11-19T10:48:15;97418.22;;;7.99;96.20
75788;BME280;64406;50.024;14.492;2023-11-19T10:50:43;97414.63;;;8.42;95.85
75788;BME280;64406;50.024;14.492;2023-11-19T10:53:11;97416.25;;;8.67;93.88
75788;BME280;64406;50.024;14.492;2023-11-19T10:55:39;97432.53;;;9.00;92.48
75788;BME280;64406;50.024;14.492;2023-11-19T10:58:06;97437.47;;;9.31;93.33
75788;BME280;64406;50.024;14.492;2023-11-19T11:00:38;97419.56;;;9.26;90.75
75788;BME280;64406;50.024;14.492;2023-11-19T11:03:10;97418.81;;;9.20;90.79
75788;BME280;64406;50.024;14.492;2023-11-19T11:05:37;97420.84;;;9.10;90.62
75788;BME280;64406;50.024;14.492;2023-11-19T11:08:06;97414.25;;;9.21;90.59
75788;BME280;64406;50.024;14.492;2023-11-19T11:10:36;97406.63;;;9.28;89.99
75788;BME280;64406;50.024;14.492;2023-11-19T11:13:05;97412.31;;;9.45;90.14
75788;BME280;64406;50.024;14.492;2023-11-19T11:15:31;97410.78;;;9.39;90.02
75788;BME280;64406;50.024;14.492;2023-11-19T11:18:02;97423.47;;;9.34;89.72
75788;BME280;64406;50.024;14.492;2023-11-19T11:20:32;97434.25;;;9.52;88.96
75788;BME280;64406;50.024;14.492;2023-11-19T11:28:54;97411.69;;;9.11;91.80
75788;BME280;64406;50.024;14.492;2023-11-19T11:31:34;97411.03;;;9.00;91.14
75788;BME280;64406;50.024;14.492;2023-11-19T11:39:35;97426.97;;;9.72;87.17
75788;BME280;64406;50.024;14.492;2023-11-19T11:55:24;97429.59;;;9.58;86.94
75788;BME280;64406;50.024;14.492;2023-11-19T11:57:50;97402.72;;;9.58;86.77
75788;BME280;64406;50.024;14.492;2023-11-19T12:00:40;97412.00;;;9.66;86.16
75788;BME280;64406;50.024;14.492;2023-11-19T12:03:08;97412.13;;;9.74;85.42
75788;BME280;64406;50.024;14.492;2023-11-19T12:05:38;97404.41;;;9.68;84.35
75788;BME280;64406;50.024;14.492;2023-11-19T12:08:07;97412.72;;;9.71;84.97
75788;BME280;64406;50.024;14.492;2023-11-19T12:10:49;97414.88;;;9.69;84.91
75788;BME280;64406;50.024;14.492;2023-11-19T12:13:16;97401.84;;;9.76;84.60
75788;BME280;64406;50.024;14.492;2023-11-19T12:18:29;97398.78;;;9.83;83.41
75788;BME280;64406;50.024;14.492;2023-11-19T12:20:56;97400.13;;;9.86;84.58
75788;BME280;64406;50.024;14.492;2023-11-19T12:23:23;97396.97;;;9.97;84.33
75788;BME280;64406;50.024;14.492;2023-11-19T12:25:49;97402.28;;;9.84;84.61
75788;BME280;64406;50.024;14.492;2023-11-19T12:28:15;97409.84;;;9.81;84.59
75788;BME280;64406;50.024;14.492;2023-11-19T12:30:45;97403.00;;;9.89;84.07
75788;BME280;64406;50.024;14.492;2023-11-19T12:33:12;97398.44;;;10.03;83.64
75788;BME280;64406;50.024;14.492;2023-11-19T12:35:45;97392.09;;;9.99;84.11
75788;BME280;64406;50.024;14.492;2023-11-19T12:38:24;97392.50;;;10.06;83.82
75788;BME280;64406;50.024;14.492;2023-11-19T12:41:06;97391.22;;;10.04;83.97
75788;BME280;64406;50.024;14.492;2023-11-19T12:43:32;97380.00;;;9.97;84.16
75788;BME280;64406;50.024;14.492;2023-11-19T12:46:01;97368.97;;;9.98;83.05
75788;BME280;64406;50.024;14.492;2023-11-19T12:48:27;97365.06;;;9.91;84.07
75788;BME280;64406;50.024;14.492;2023-11-19T12:50:55;97358.59;;;9.92;84.85
75788;BME280;64406;50.024;14.492;2023-11-19T12:53:22;97368.81;;;9.90;85.01
75788;BME280;64406;50.024;14.492;2023-11-19T12:55:48;97357.66;;;9.82;84.09
75788;BME280;64406;50.024;14.492;2023-11-19T12:58:34;97359.06;;;9.80;85.52
75788;BME280;64406;50.024;14.492;2023-11-19T13:01:05;97370.75;;;9.70;85.13
75788;BME280;64406;50.024;14.492;2023-11-19T13:03:35;97362.81;;;9.46;86.86
75788;BME280;64406;50.024;14.492;2023-11-19T13:06:06;97369.84;;;9.42;86.97
75788;BME280;64406;50.024;14.492;2023-11-19T13:08:46;97364.53;;;9.56;86.77
75788;BME280;64406;50.024;14.492;2023-11-19T13:11:13;97364.97;;;9.63;86.59
75788;BME280;64406;50.024;14.492;2023-11-19T13:13:59;97356.31;;;9.66;86.27
75788;BME280;64406;50.024;14.492;2023-11-19T13:16:26;97340.97;;;9.67;85.76
75788;BME280;64406;50.024;14.492;2023-11-19T13:18:53;97340.59;;;9.73;85.55
75788;BME280;64406;50.024;14.492;2023-11-19T13:21:18;97347.28;;;9.76;86.01